createdAt,value
2022-12-08T00:01:31.175Z,9.80
2022-12-08T00:04:00.856Z,8.82
2022-12-08T00:06:54.091Z,11.13
2022-12-08T00:09:39.144Z,11.07
2022-12-08T00:12:11.970Z,10.25
2022-12-08T00:14:45.445Z,10.20
2022-12-08T00:17:15.582Z,10.75
2022-12-08T00:19:44.170Z,10.73
2022-12-08T00:22:12.813Z,5.90
2022-12-08T00:24:41.391Z,10.02
2022-12-08T00:27:10.652Z,12.93
2022-12-08T00:29:38.969Z,8.07
2022-12-08T00:32:07.095Z,10.43
2022-12-08T00:34:35.245Z,8.50
2022-12-08T00:37:03.380Z,9.32
2022-12-08T00:39:30.895Z,9.05
2022-12-08T00:42:13.518Z,8.57
2022-12-08T00:44:42.484Z,9.70
2022-12-08T00:49:37.497Z,9.27
2022-12-08T00:52:05.520Z,9.57
2022-12-08T00:54:32.980Z,10.05
2022-12-08T00:57:00.698Z,12.65
2022-12-08T00:59:28.486Z,8.65
2022-12-08T01:01:56.254Z,10.43
2022-12-08T01:04:24.207Z,9.65
2022-12-08T01:06:52.085Z,13.13
2022-12-08T01:09:19.922Z,7.63
2022-12-08T01:11:48.667Z,8.63
2022-12-08T01:16:44.193Z,10.73
2022-12-08T01:19:13.743Z,9.60
2022-12-08T01:21:42.623Z,12.27
2022-12-08T01:24:14.947Z,9.20
2022-12-08T01:26:42.718Z,10.15
2022-12-08T01:29:11.264Z,12.63
2022-12-08T01:31:39.680Z,11.80
2022-12-08T01:34:08.743Z,12.10
2022-12-08T01:36:37.560Z,10.85
2022-12-08T01:39:19.642Z,9.30
2022-12-08T01:41:47.847Z,10.00
2022-12-08T01:44:15.198Z,10.25
2022-12-08T01:46:47.346Z,8.98
2022-12-08T01:49:27.038Z,10.10
2022-12-08T01:52:03.042Z,10.93
2022-12-08T01:54:36.873Z,8.27
2022-12-08T01:57:20.746Z,10.18
2022-12-08T01:59:54.784Z,9.23
2022-12-08T02:02:24.200Z,8.73
2022-12-08T02:04:51.748Z,8.77
2022-12-08T02:07:20.488Z,8.70
2022-12-08T02:09:48.119Z,9.60
2022-12-08T02:12:15.878Z,11.93
2022-12-08T02:14:43.451Z,11.27
2022-12-08T02:17:51.121Z,9.05
2022-12-08T02:20:27.293Z,13.75
2022-12-08T02:22:59.919Z,9.30
2022-12-08T02:25:35.550Z,12.23
2022-12-08T02:28:32.154Z,9.75
2022-12-08T02:31:11.507Z,10.68
2022-12-08T02:34:04.401Z,11.80
2022-12-08T02:36:47.049Z,9.15
2022-12-08T02:39:36.224Z,9.82
2022-12-08T02:42:31.622Z,9.32
2022-12-08T02:45:26.128Z,9.95
2022-12-08T02:47:54.119Z,8.55
2022-12-08T02:50:21.653Z,9.38
2022-12-08T02:52:49.198Z,9.65
2022-12-08T02:55:28.269Z,8.23
2022-12-08T02:58:07.853Z,10.18
2022-12-08T03:01:01.969Z,9.82
2022-12-08T03:03:43.990Z,8.57
2022-12-08T03:06:23.834Z,11.20
2022-12-08T03:09:06.161Z,11.82
2022-12-08T03:11:42.620Z,12.45
2022-12-08T03:14:14.586Z,12.73
2022-12-08T03:16:45.763Z,10.80
2022-12-08T03:19:20.108Z,9.27
2022-12-08T03:21:51.862Z,10.63
2022-12-08T03:24:23.150Z,13.00
2022-12-08T03:26:57.126Z,11.48
2022-12-08T03:29:24.993Z,9.50
2022-12-08T03:31:57.613Z,7.88
2022-12-08T03:34:29.943Z,9.50
2022-12-08T03:37:00.150Z,9.55
2022-12-08T03:39:27.663Z,10.57
2022-12-08T03:41:55.277Z,9.80
2022-12-08T03:44:23.001Z,10.10
2022-12-08T03:46:50.685Z,10.90
2022-12-08T03:49:18.077Z,11.52
2022-12-08T03:51:45.581Z,8.63
2022-12-08T03:54:13.114Z,8.77
2022-12-08T03:56:40.611Z,8.55
2022-12-08T03:59:08.989Z,9.45
2022-12-08T04:01:36.708Z,9.02
2022-12-08T04:04:04.552Z,11.32
2022-12-08T04:06:31.925Z,8.68
2022-12-08T04:08:59.775Z,9.05
2022-12-08T04:11:27.347Z,9.55
2022-12-08T04:13:55.129Z,9.98
2022-12-08T04:16:25.332Z,10.45
2022-12-08T04:18:53.374Z,9.70
2022-12-08T04:21:21.745Z,7.47
2022-12-08T04:23:49.451Z,7.53
2022-12-08T04:26:17.050Z,8.48
2022-12-08T04:28:45.010Z,10.40
2022-12-08T04:31:12.608Z,9.55
2022-12-08T04:33:40.195Z,9.93
2022-12-08T04:36:08.252Z,11.05
2022-12-08T04:38:36.005Z,8.60
2022-12-08T04:41:04.138Z,9.65
2022-12-08T04:43:31.592Z,10.57
2022-12-08T04:45:59.361Z,10.43
2022-12-08T04:48:27.198Z,9.55
2022-12-08T04:50:54.748Z,11.48
2022-12-08T04:53:22.804Z,9.40
2022-12-08T04:55:50.573Z,8.33
2022-12-08T04:58:20.291Z,10.07
2022-12-08T05:00:48.814Z,10.10
2022-12-08T05:03:17.040Z,6.85
2022-12-08T05:05:44.788Z,9.88
2022-12-08T05:08:12.733Z,11.03
2022-12-08T05:10:40.588Z,11.07
2022-12-08T05:13:08.359Z,11.27
2022-12-08T05:15:35.900Z,10.55
2022-12-08T05:18:06.371Z,10.13
2022-12-08T05:20:35.023Z,8.68
2022-12-08T05:23:02.776Z,10.65
2022-12-08T05:25:30.213Z,9.10
2022-12-08T05:28:17.656Z,12.57
2022-12-08T05:30:45.341Z,10.30
2022-12-08T05:33:13.063Z,10.23
2022-12-08T05:35:40.546Z,10.23
2022-12-08T05:38:08.088Z,11.50
2022-12-08T05:40:38.829Z,9.27
2022-12-08T05:43:06.703Z,10.50
2022-12-08T05:45:34.516Z,10.60
2022-12-08T05:48:02.385Z,11.65
2022-12-08T05:50:30.089Z,11.00
2022-12-08T05:52:57.609Z,12.73
2022-12-08T05:55:25.039Z,11.30
2022-12-08T05:57:52.668Z,11.43
2022-12-08T06:00:20.947Z,10.43
2022-12-08T06:02:48.616Z,10.13
2022-12-08T06:05:16.257Z,9.93
2022-12-08T06:07:43.877Z,12.07
2022-12-08T06:10:12.011Z,10.40
2022-12-08T06:12:40.452Z,7.72
2022-12-08T06:15:08.239Z,7.90
2022-12-08T06:17:35.954Z,13.27
2022-12-08T06:20:04.044Z,9.77
2022-12-08T06:22:31.943Z,9.52
2022-12-08T06:24:59.465Z,9.25
2022-12-08T06:27:27.233Z,11.95
2022-12-08T06:29:55.042Z,11.43
2022-12-08T06:32:27.258Z,25.70
2022-12-08T06:34:55.163Z,18.95
2022-12-08T06:37:22.589Z,16.98
2022-12-08T06:39:50.122Z,11.13
2022-12-08T06:42:36.361Z,11.93
2022-12-08T06:45:04.212Z,12.50
2022-12-08T06:47:31.654Z,17.45
2022-12-08T06:49:59.733Z,11.53
2022-12-08T06:52:27.237Z,19.08
2022-12-08T06:54:54.730Z,13.00
2022-12-08T06:57:24.073Z,15.38
2022-12-08T06:59:51.914Z,13.50
2022-12-08T07:02:19.805Z,13.88
2022-12-08T07:04:47.604Z,15.30
2022-12-08T07:07:15.406Z,13.57
2022-12-08T07:09:43.121Z,12.57
2022-12-08T07:12:10.564Z,14.05
2022-12-08T07:14:38.236Z,17.38
2022-12-08T07:17:06.047Z,17.65
2022-12-08T07:19:33.876Z,15.25
2022-12-08T07:22:01.585Z,12.55
2022-12-08T07:24:29.064Z,13.13
2022-12-08T07:26:56.564Z,12.30
2022-12-08T07:29:26.367Z,13.88
2022-12-08T07:31:54.114Z,13.93
2022-12-08T07:34:21.749Z,13.98
2022-12-08T07:36:49.268Z,12.57
2022-12-08T07:39:17.157Z,12.57
2022-12-08T07:41:44.583Z,14.30
2022-12-08T07:44:12.795Z,10.83
2022-12-08T07:46:40.485Z,13.70
2022-12-08T07:49:08.205Z,12.02
2022-12-08T07:51:35.747Z,13.20
2022-12-08T07:54:03.284Z,15.05
2022-12-08T07:56:30.783Z,15.77
2022-12-08T07:58:58.388Z,12.55
2022-12-08T08:01:30.486Z,14.43
2022-12-08T08:04:04.451Z,13.23
2022-12-08T08:06:33.818Z,15.00
2022-12-08T08:09:01.638Z,16.15
2022-12-08T08:11:29.507Z,12.65
2022-12-08T08:13:57.620Z,12.40
2022-12-08T08:16:25.501Z,9.60
2022-12-08T08:18:53.698Z,11.88
2022-12-08T08:21:45.143Z,13.20
2022-12-08T08:24:09.768Z,13.73
2022-12-08T08:26:37.847Z,15.38
2022-12-08T08:29:05.602Z,10.85
2022-12-08T08:31:33.337Z,14.10
2022-12-08T08:34:06.073Z,14.20
2022-12-08T08:36:34.184Z,13.07
2022-12-08T08:39:02.375Z,14.15
2022-12-08T08:41:29.894Z,14.70
2022-12-08T08:43:57.458Z,15.82
2022-12-08T08:46:25.272Z,17.10
2022-12-08T08:48:52.934Z,15.13
2022-12-08T08:51:21.256Z,14.48
2022-12-08T08:53:48.820Z,13.85
2022-12-08T08:56:21.844Z,13.88
2022-12-08T08:58:50.426Z,14.60
2022-12-08T09:01:21.249Z,16.90
2022-12-08T09:03:49.878Z,12.77
2022-12-08T09:06:17.897Z,13.57
2022-12-08T09:08:46.307Z,14.13
2022-12-08T09:11:14.850Z,17.13
2022-12-08T09:13:42.610Z,13.60
2022-12-08T09:16:12.095Z,14.38
2022-12-08T09:18:40.053Z,12.95
2022-12-08T09:21:11.586Z,14.10
2022-12-08T09:23:40.134Z,17.30
2022-12-08T09:26:08.355Z,11.75
2022-12-08T09:28:37.573Z,14.80
2022-12-08T09:31:05.481Z,14.75
2022-12-08T09:33:32.980Z,14.32
2022-12-08T09:36:04.339Z,14.13
2022-12-08T09:38:32.621Z,16.33
2022-12-08T09:41:02.348Z,23.23
2022-12-08T09:43:46.039Z,27.60
2022-12-08T09:46:17.621Z,22.92
2022-12-08T09:48:57.352Z,22.73
2022-12-08T09:51:36.012Z,27.08
2022-12-08T09:54:09.984Z,24.48
2022-12-08T09:56:37.773Z,28.40
2022-12-08T09:59:08.539Z,19.00
2022-12-08T10:01:41.746Z,28.98
2022-12-08T10:04:26.736Z,23.25
2022-12-08T10:06:56.953Z,25.50
2022-12-08T10:09:40.416Z,25.45
2022-12-08T10:12:08.169Z,24.05
2022-12-08T10:14:43.349Z,20.55
2022-12-08T10:17:28.652Z,17.55
2022-12-08T10:20:12.307Z,14.07
2022-12-08T10:22:44.577Z,14.13
2022-12-08T10:25:18.420Z,16.08
2022-12-08T10:27:53.272Z,15.65
2022-12-08T10:30:22.636Z,14.93
2022-12-08T10:32:52.164Z,13.00
2022-12-08T10:35:22.046Z,17.27
2022-12-08T10:38:01.713Z,16.10
2022-12-08T10:40:40.596Z,18.02
2022-12-08T10:43:20.886Z,21.75
2022-12-08T10:45:48.672Z,19.30
2022-12-08T10:48:30.672Z,19.92
2022-12-08T10:50:59.778Z,21.75
2022-12-08T10:53:31.776Z,19.48
2022-12-08T10:56:02.266Z,18.58
2022-12-08T10:58:31.416Z,20.67
2022-12-08T11:01:04.944Z,19.20
2022-12-08T11:03:44.675Z,21.30
2022-12-08T11:06:17.714Z,23.75
2022-12-08T11:08:49.070Z,23.27
2022-12-08T11:11:17.632Z,19.73
2022-12-08T11:13:45.232Z,15.93
2022-12-08T11:16:15.986Z,20.20
2022-12-08T11:18:55.219Z,17.85
2022-12-08T11:21:37.808Z,18.60
2022-12-08T11:24:14.313Z,19.23
2022-12-08T11:26:58.122Z,21.05
2022-12-08T11:29:28.028Z,20.35
2022-12-08T11:32:12.401Z,19.42
2022-12-08T11:34:55.436Z,17.48
2022-12-08T11:37:34.732Z,16.88
2022-12-08T11:40:21.733Z,19.30
2022-12-08T11:42:58.434Z,20.92
2022-12-08T11:45:33.153Z,18.70
2022-12-08T11:48:15.954Z,16.30
2022-12-08T11:50:47.570Z,15.10
2022-12-08T11:53:23.507Z,15.90
2022-12-08T11:55:57.582Z,12.75
2022-12-08T11:58:34.855Z,13.85
2022-12-08T12:01:02.975Z,14.18
2022-12-08T12:03:47.295Z,15.55
2022-12-08T12:06:54.893Z,14.02
2022-12-08T12:09:31.996Z,15.05
2022-12-08T12:12:15.907Z,14.23
2022-12-08T12:14:46.291Z,13.40
2022-12-08T12:17:35.223Z,13.57
2022-12-08T12:20:12.124Z,15.07
2022-12-08T12:22:40.669Z,15.38
2022-12-08T12:25:18.030Z,14.63
2022-12-08T12:27:46.605Z,14.32
2022-12-08T12:30:53.933Z,11.32
2022-12-08T12:33:23.184Z,16.55
2022-12-08T12:35:51.232Z,16.05
2022-12-08T12:38:46.032Z,13.95
2022-12-08T12:41:16.942Z,14.07
2022-12-08T12:44:12.379Z,16.13
2022-12-08T12:46:54.071Z,13.80
2022-12-08T12:49:39.728Z,15.45
2022-12-08T12:52:10.479Z,13.82
2022-12-08T12:54:43.552Z,16.95
2022-12-08T12:57:11.268Z,16.05
2022-12-08T13:00:08.385Z,14.05
2022-12-08T13:02:36.463Z,13.90
2022-12-08T13:05:18.017Z,16.27
2022-12-08T13:07:48.574Z,14.40
2022-12-08T13:10:16.260Z,15.63
2022-12-08T13:12:45.946Z,15.32
2022-12-08T13:15:19.910Z,15.00
2022-12-08T13:17:49.138Z,13.98
2022-12-08T13:20:24.990Z,15.77
2022-12-08T13:23:13.423Z,12.48
2022-12-08T13:25:40.812Z,13.35
2022-12-08T13:28:21.007Z,13.27
2022-12-08T13:30:50.900Z,14.98
2022-12-08T13:33:22.221Z,16.70
2022-12-08T13:36:28.217Z,13.55
2022-12-08T13:38:58.807Z,13.27
2022-12-08T13:41:43.492Z,14.43
2022-12-08T13:47:33.709Z,14.07
2022-12-08T13:54:35.482Z,13.77
2022-12-08T13:58:48.217Z,15.57
2022-12-08T14:01:24.348Z,15.50
2022-12-08T14:06:58.340Z,13.70
2022-12-08T14:09:32.558Z,17.25
2022-12-08T14:12:17.805Z,14.95
2022-12-08T14:15:04.914Z,16.52
2022-12-08T14:17:33.766Z,15.27
2022-12-08T14:20:03.195Z,13.43
2022-12-08T14:22:39.286Z,16.48
2022-12-08T14:25:14.068Z,15.55
2022-12-08T14:27:42.470Z,14.63
2022-12-08T14:30:16.123Z,13.85
2022-12-08T14:32:48.344Z,14.07
2022-12-08T14:35:22.553Z,14.60
2022-12-08T14:37:54.688Z,14.95
2022-12-08T14:40:28.763Z,16.30
2022-12-08T14:43:08.726Z,14.32
2022-12-08T14:45:39.166Z,14.27
2022-12-08T14:48:31.477Z,16.52
2022-12-08T14:51:07.394Z,13.88
2022-12-08T14:53:41.907Z,13.48
2022-12-08T14:56:36.163Z,15.07
2022-12-08T14:59:12.158Z,15.05
2022-12-08T15:01:40.503Z,15.27
2022-12-08T15:04:13.530Z,14.32
2022-12-08T15:06:54.352Z,12.13
2022-12-08T15:10:10.446Z,13.52
2022-12-08T15:12:38.078Z,13.10
2022-12-08T15:15:08.486Z,14.90
2022-12-08T15:17:49.059Z,13.25
2022-12-08T15:20:39.133Z,14.57
2022-12-08T15:23:21.439Z,13.43
2022-12-08T15:25:49.965Z,12.52
2022-12-08T15:28:23.979Z,14.07
2022-12-08T15:30:55.209Z,11.80
2022-12-08T15:33:22.996Z,14.02
2022-12-08T15:35:51.385Z,11.50
2022-12-08T15:38:26.703Z,14.65
2022-12-08T15:40:55.009Z,13.18
2022-12-08T15:43:23.303Z,13.95
2022-12-08T15:45:59.208Z,13.77
2022-12-08T15:48:30.199Z,11.68
2022-12-08T15:50:58.867Z,11.85
2022-12-08T15:53:26.378Z,12.90
2022-12-08T15:58:58.804Z,15.52
2022-12-08T16:01:27.232Z,16.48
2022-12-08T16:09:38.841Z,13.88
2022-12-08T16:13:40.463Z,13.07
2022-12-08T16:18:25.129Z,11.20
2022-12-08T16:23:44.169Z,13.63
2022-12-08T16:29:06.611Z,13.52
2022-12-08T16:31:34.976Z,13.13
2022-12-08T16:34:02.552Z,7.87
2022-12-08T16:36:30.264Z,13.05
2022-12-08T16:38:57.912Z,13.95
2022-12-08T16:41:43.912Z,14.13
2022-12-08T16:44:11.411Z,12.07
2022-12-08T16:46:39.228Z,10.20
2022-12-08T16:49:09.056Z,12.88
2022-12-08T16:51:36.717Z,10.63
2022-12-08T16:54:04.486Z,12.07
2022-12-08T16:56:33.528Z,11.15
2022-12-08T16:59:02.470Z,11.35
2022-12-08T17:01:30.538Z,12.90
2022-12-08T17:04:29.731Z,12.15
2022-12-08T17:06:46.812Z,10.10
2022-12-08T17:09:14.658Z,11.70
2022-12-08T17:11:43.705Z,10.40
2022-12-08T17:16:40.661Z,11.93
2022-12-08T17:19:08.752Z,11.60
2022-12-08T17:21:36.439Z,10.57
2022-12-08T17:24:04.475Z,11.70
2022-12-08T17:26:32.373Z,10.93
2022-12-08T17:29:02.391Z,11.50
2022-12-08T17:31:32.161Z,10.55
2022-12-08T17:34:03.039Z,9.68
2022-12-08T17:36:31.313Z,11.00
2022-12-08T17:39:00.467Z,9.65
2022-12-08T17:41:29.099Z,10.38
2022-12-08T17:43:57.036Z,12.90
2022-12-08T17:46:24.735Z,12.60
2022-12-08T17:48:52.655Z,20.83
2022-12-08T17:51:20.969Z,13.75
2022-12-08T17:53:48.692Z,11.03
2022-12-08T17:56:19.617Z,13.73
2022-12-08T17:58:54.032Z,10.50
2022-12-08T18:01:23.610Z,8.40
2022-12-08T18:03:51.837Z,9.43
2022-12-08T18:06:19.717Z,9.50
2022-12-08T18:08:47.734Z,9.25
2022-12-08T18:11:18.425Z,12.98
2022-12-08T18:13:47.626Z,10.73
2022-12-08T18:16:15.971Z,8.85
2022-12-08T18:18:43.694Z,8.32
2022-12-08T18:21:11.829Z,7.75
2022-12-08T18:23:42.263Z,7.15
2022-12-08T18:26:13.766Z,8.65
2022-12-08T18:28:42.095Z,9.10
2022-12-08T18:31:15.944Z,18.20
2022-12-08T18:33:45.077Z,11.07
2022-12-08T18:41:12.182Z,8.23
2022-12-08T18:43:40.616Z,8.30
2022-12-08T18:46:11.016Z,9.57
2022-12-08T18:48:46.216Z,8.30
2022-12-08T18:51:16.556Z,13.00
2022-12-08T18:53:45.401Z,13.40
2022-12-08T18:56:26.293Z,17.27
2022-12-08T18:59:01.295Z,29.90
2022-12-08T19:01:33.205Z,33.90
2022-12-08T19:04:27.868Z,16.00
2022-12-08T19:06:53.431Z,11.13
2022-12-08T19:09:22.405Z,9.82
2022-12-08T19:11:50.280Z,7.13
2022-12-08T19:14:22.570Z,8.93
2022-12-08T19:16:53.732Z,10.40
2022-12-08T19:19:21.649Z,10.65
2022-12-08T19:21:49.598Z,7.63
2022-12-08T19:24:17.704Z,9.73
2022-12-08T19:26:45.736Z,8.77
2022-12-08T19:29:13.948Z,10.98
2022-12-08T19:31:41.905Z,10.05
2022-12-08T19:34:11.965Z,9.13
2022-12-08T19:36:42.733Z,7.78
2022-12-08T19:39:33.720Z,9.35
2022-12-08T19:42:20.550Z,9.77
2022-12-08T19:44:54.462Z,7.75
2022-12-08T19:47:24.848Z,7.07
2022-12-08T19:50:17.095Z,8.50
2022-12-08T19:52:45.485Z,5.47
2022-12-08T19:55:13.514Z,4.78
2022-12-08T19:57:41.571Z,5.32
2022-12-08T20:00:11.111Z,7.18
2022-12-08T20:02:39.388Z,4.60
2022-12-08T20:05:08.468Z,6.03
2022-12-08T20:07:36.444Z,6.05
2022-12-08T20:10:06.808Z,6.75
2022-12-08T20:12:34.516Z,6.15
2022-12-08T20:15:02.642Z,7.37
2022-12-08T20:17:30.715Z,8.77
2022-12-08T20:20:02.587Z,5.93
2022-12-08T20:22:34.518Z,6.60
2022-12-08T20:25:03.096Z,6.05
2022-12-08T20:27:31.027Z,14.30
2022-12-08T20:29:59.137Z,10.93
2022-12-08T20:32:27.101Z,6.75
2022-12-08T20:34:55.404Z,10.25
2022-12-08T20:37:22.988Z,9.90
2022-12-08T20:39:52.367Z,6.07
2022-12-08T20:42:20.480Z,9.57
2022-12-08T20:44:48.588Z,8.53
2022-12-08T20:47:17.445Z,16.13
2022-12-08T20:49:47.136Z,14.57
2022-12-08T20:52:15.847Z,9.32
2022-12-08T20:54:43.697Z,12.57
2022-12-08T20:57:11.711Z,7.78
2022-12-08T20:59:39.704Z,8.63
2022-12-08T21:02:07.613Z,8.57
2022-12-08T21:04:35.637Z,7.20
2022-12-08T21:07:03.759Z,4.33
2022-12-08T21:09:31.504Z,8.25
2022-12-08T21:11:59.216Z,4.60
2022-12-08T21:14:26.953Z,3.42
2022-12-08T21:16:55.645Z,3.33
2022-12-08T21:19:26.044Z,4.80
2022-12-08T21:21:53.819Z,5.00
2022-12-08T21:24:21.920Z,3.83
2022-12-08T21:26:50.153Z,6.20
2022-12-08T21:29:18.036Z,4.75
2022-12-08T21:31:45.950Z,5.82
2022-12-08T21:34:14.065Z,3.22
2022-12-08T21:36:41.763Z,4.35
2022-12-08T21:39:12.833Z,3.28
2022-12-08T21:41:59.607Z,4.57
2022-12-08T21:44:27.506Z,3.88
2022-12-08T21:46:55.169Z,5.80
2022-12-08T21:49:23.254Z,6.93
2022-12-08T21:51:51.332Z,4.50
2022-12-08T21:54:19.635Z,4.53
2022-12-08T21:56:48.800Z,4.53
2022-12-08T21:59:17.819Z,5.45
2022-12-08T22:01:46.022Z,5.25
2022-12-08T22:04:18.178Z,4.25
2022-12-08T22:06:46.352Z,4.88
2022-12-08T22:09:15.223Z,4.93
2022-12-08T22:11:43.943Z,5.50
2022-12-08T22:14:14.999Z,7.22
2022-12-08T22:16:44.112Z,7.25
2022-12-08T22:19:12.778Z,10.20
2022-12-08T22:21:41.590Z,6.82
2022-12-08T22:24:09.838Z,6.53
2022-12-08T22:26:37.813Z,3.80
2022-12-08T22:29:05.592Z,6.03
2022-12-08T22:31:33.233Z,5.45
2022-12-08T22:34:00.807Z,6.13
2022-12-08T22:36:28.856Z,6.63
2022-12-08T22:38:57.111Z,6.25
2022-12-08T22:41:24.939Z,8.13
2022-12-08T22:43:52.513Z,7.85
2022-12-08T22:46:21.631Z,5.40
2022-12-08T22:48:50.218Z,6.13
2022-12-08T22:51:18.402Z,6.40
2022-12-08T22:53:46.666Z,7.53
2022-12-08T22:56:15.485Z,5.45
2022-12-08T22:58:44.519Z,6.03
2022-12-08T23:03:49.710Z,5.50
2022-12-08T23:06:17.500Z,4.78
2022-12-08T23:08:45.897Z,4.88
2022-12-08T23:11:14.011Z,4.95
2022-12-08T23:13:42.260Z,3.37
2022-12-08T23:16:11.700Z,3.88
2022-12-08T23:18:44.918Z,4.03
2022-12-08T23:21:18.955Z,5.28
2022-12-08T23:23:46.878Z,4.95
2022-12-08T23:26:26.760Z,5.00
2022-12-08T23:28:56.381Z,5.10
2022-12-08T23:31:24.865Z,5.53
2022-12-08T23:33:53.379Z,5.03
2022-12-08T23:36:22.581Z,5.13
2022-12-08T23:41:17.799Z,4.88
2022-12-08T23:43:47.903Z,3.90
2022-12-08T23:46:17.277Z,5.72
2022-12-08T23:48:45.538Z,4.82
2022-12-08T23:51:14.035Z,5.80
2022-12-08T23:53:41.700Z,4.55
2022-12-08T23:56:12.210Z,4.03
2022-12-08T23:58:41.641Z,5.13
